Tri Cities Regional Tn Va Airport
KTRI : now visible

Airfield :











YOU CAN JOIN US ON...

 
LOGIN :

Register | Disclaimer

   EN    FR    IT 

 









Legend :    VFR   Marginal VFR   IFR   Intensive IFR   Very Intensive IFR
Visi :
Ceiling :
>= 8 km
>= 3000ft
5 to 8 km
1000 to 3000 ft
1500m to 5 km
500 to 1000 ft
800 to 1500m
200 to 500 ft
< 800m
< 200 ft
Symbols :   Thunderstorms  Fog  Heavy snow  Heavy precipitations  Wind > 20 kt






- Airport Elevation : 1519 ft
- IATA code : TRI


KTRI - Tri Cities Regional Tn Va

CURRENT METAR :
  • 121753Z 04008KT 360V080 10SM FEW065 BKN100 OVC120 10/05 A3029 RMK AO2 SLP246 60013 T01000050 10100 20078 58005

EXPIRED METARs :
  • 121653Z 04006KT 10SM SCT014 SCT020 OVC060 08/06 A3031 RMK AO2 RAE45 SLP251 P0001 T00780056
  • 121637Z VRB06KT 10SM -RA SCT011 BKN016 OVC060 08/06 A3031 RMK AO2 P0001 T00780056
  • 121627Z VRB04KT 8SM -RA BKN013 OVC060 08/06 A3032 RMK AO2 P0001 T00780061
  • 121553Z 05004KT 10SM -RA FEW015 OVC055 08/06 A3031 RMK AO2 SLP254 P0003 T00780056

TAF KTRI
Valid from the 12 at 18:00 until the 13 at 18:00 UTC


121723Z 1218/1318 05009KT P6SM SCT020 BKN070
FM122000 05008KT P6SM SCT030 BKN080
FM130100 03005KT P6SM FEW045 BKN120
FM130400 VRB04KT P6SM FEW050 SCT150
KZTL FIR / North America



MET'MAP, your aeronautical weather chart ! - Copyright ORBIFLY December 2007 - Disclaimer

ORBIFLY MET'MAP TEAM :

Programming & Development : Alexandra Zaïnal
Concept & original design : Baudouin d'Aumeries
Assistance for programming : Marc-Olivier Méhu
Technical & hardware support : Manuel Goepfert

Contact : metmap@orbifly.com




SOURCES & CREDITS :

   NOAA       Earth
Advisory